Marsh Run, Pennsylvania
Current Conditions -  °F | °C
As of 11:56 AM on Saturday 20 Dec 2014 (Local Time) from KCXY Reporting Station
Overcast Overcast  
Wind Chill: 29°   Ceiling: 2900
Heat Index: 33°   Visibility: 10mi
Dew Point: 20°   Wind: 5mph
Humidity: 59%   Direction: 330°NNW
Pressure: 30.28"   Gusts: NA
Location:  40.2034°N, 76.87°W
Report Text: KCXY 201656Z 33004KT 10SM OVC029 01/M07 A3028 RMK AO2 SLP258 T00061067
Loading
Personal Weather Stations






























Interactive Weather Map New forecast layout! Learn more

10-Day Weather Forecast

Advertisements
Track Severe Weather on mobile